Time;durP1;ratioP1;P1;durP2;ratioP2;P2;SDS_P1;SDS_P2;PMS_P1;PMS_P2;Temp;Humidity;BMP_temperature;BMP_pressure;BME280_temperature;BME280_humidity;BME280_pressure;Samples;Min_cycle;Max_cycle;Signal;HPM_P1;HPM_P2
2021/07/08 00:00:34;;;;;;;22.35;13.85;;;;;;;22.85;55.74;99254.06;125683;1093;103004;-74
2021/07/08 00:03:21;;;;;;;21.87;14.10;;;;;;;22.79;55.56;99252.13;125655;1093;102946;-74
2021/07/08 00:05:49;;;;;;;24.47;14.67;;;;;;;22.72;55.68;99250.16;125712;1093;103128;-75
2021/07/08 00:08:18;;;;;;;24.73;14.77;;;;;;;22.68;55.34;99258.83;125653;1093;103125;-75
2021/07/08 00:10:51;;;;;;;20.97;13.23;;;;;;;22.64;55.73;99255.67;125696;1093;103096;-74
2021/07/08 00:13:22;;;;;;;25.63;15.45;;;;;;;22.59;55.96;99253.52;125704;1092;102936;-73
2021/07/08 00:15:53;;;;;;;24.70;14.17;;;;;;;22.56;56.34;99258.45;125656;1094;103012;-73
2021/07/08 00:18:24;;;;;;;24.17;14.50;;;;;;;22.51;56.13;99258.16;125703;1093;103007;-74
2021/07/08 00:20:53;;;;;;;23.57;15.13;;;;;;;22.46;56.16;99256.02;125672;1093;104463;-74
2021/07/08 00:23:22;;;;;;;23.87;15.10;;;;;;;22.41;56.38;99261.97;125633;1095;103005;-74
2021/07/08 00:25:53;;;;;;;24.03;14.60;;;;;;;22.39;56.30;99258.60;126159;1096;103012;-74
2021/07/08 00:28:23;;;;;;;23.47;14.90;;;;;;;22.37;56.54;99259.80;125689;1093;102944;-75
2021/07/08 00:30:52;;;;;;;22.10;14.50;;;;;;;22.35;56.62;99259.13;125680;1093;102919;-75
2021/07/08 00:33:21;;;;;;;22.30;14.03;;;;;;;22.33;56.55;99258.48;125749;1093;103094;-74
2021/07/08 00:35:50;;;;;;;22.63;13.73;;;;;;;22.25;56.61;99262.11;125705;1093;103071;-73
2021/07/08 00:38:18;;;;;;;24.10;14.23;;;;;;;22.24;56.87;99263.14;125628;1093;102965;-73
2021/07/08 00:40:47;;;;;;;25.33;15.10;;;;;;;22.23;56.85;99264.98;125583;1092;103068;-73
2021/07/08 00:43:16;;;;;;;24.07;15.77;;;;;;;22.21;57.14;99268.92;125669;1093;102997;-74
2021/07/08 00:45:45;;;;;;;24.37;17.10;;;;;;;22.16;57.11;99266.77;125743;1093;103115;-74
2021/07/08 00:48:13;;;;;;;24.27;15.97;;;;;;;22.13;56.98;99261.71;125704;1093;103074;-74
2021/07/08 00:50:46;;;;;;;26.70;16.73;;;;;;;22.09;56.96;99266.63;125766;1092;102962;-74
2021/07/08 00:53:18;;;;;;;25.93;16.85;;;;;;;22.05;57.20;99256.36;125693;1092;103439;-73
2021/07/08 00:55:57;;;;;;;24.73;16.87;;;;;;;22.00;57.34;99252.33;125722;1093;103029;-73
2021/07/08 00:58:26;;;;;;;26.43;16.23;;;;;;;21.96;57.33;99253.70;125691;1093;102977;-74
2021/07/08 01:00:55;;;;;;;25.37;16.47;;;;;;;21.94;57.74;99249.51;125653;1092;102901;-74
2021/07/08 01:03:25;;;;;;;24.57;17.03;;;;;;;21.92;57.77;99255.09;125694;1093;102952;-74
2021/07/08 01:05:55;;;;;;;23.50;15.97;;;;;;;21.88;57.87;99253.77;125812;1094;103054;-74
2021/07/08 01:08:24;;;;;;;27.43;17.17;;;;;;;21.87;57.79;99260.20;125716;1096;102975;-75
2021/07/08 01:10:52;;;;;;;26.20;17.73;;;;;;;21.83;57.60;99250.75;125680;1094;103484;-74
2021/07/08 01:13:21;;;;;;;26.40;17.17;;;;;;;21.81;58.03;99253.66;125593;1096;103196;-74
2021/07/08 01:15:50;;;;;;;29.30;18.33;;;;;;;21.77;58.09;99256.91;125655;1093;102929;-74
2021/07/08 01:18:19;;;;;;;28.23;17.70;;;;;;;21.73;58.12;99251.00;125576;1093;103181;-73
2021/07/08 01:20:47;;;;;;;25.65;17.45;;;;;;;21.71;57.98;99250.33;125647;1092;102962;-73
2021/07/08 01:23:16;;;;;;;25.33;17.00;;;;;;;21.68;58.23;99253.40;125681;1093;103215;-73
2021/07/08 01:25:44;;;;;;;28.40;17.57;;;;;;;21.66;58.15;99248.17;125669;1092;103163;-73
2021/07/08 01:28:13;;;;;;;26.23;17.30;;;;;;;21.63;57.85;99242.27;125663;1093;102984;-74
2021/07/08 01:30:46;;;;;;;27.50;17.50;;;;;;;21.61;58.42;99253.25;125691;1093;102930;-73
2021/07/08 01:33:14;;;;;;;25.90;17.33;;;;;;;21.57;58.33;99254.63;125694;1093;102988;-73
2021/07/08 01:35:43;;;;;;;27.13;17.17;;;;;;;21.55;58.43;99257.53;125675;1093;103004;-74
2021/07/08 01:38:11;;;;;;;25.60;17.25;;;;;;;21.51;58.66;99253.48;125683;1092;103028;-73
2021/07/08 01:40:40;;;;;;;25.13;17.53;;;;;;;21.48;58.88;99261.95;125678;1093;103028;-74
2021/07/08 01:43:08;;;;;;;27.03;16.73;;;;;;;21.45;58.91;99254.20;125696;1093;103004;-73
2021/07/08 01:45:36;;;;;;;24.10;16.10;;;;;;;21.42;58.97;99258.08;125635;1093;102907;-73
2021/07/08 01:48:05;;;;;;;26.97;16.00;;;;;;;21.42;58.69;99249.96;125712;1093;103141;-74
2021/07/08 01:50:34;;;;;;;27.33;16.57;;;;;;;21.40;59.05;99254.70;125635;1094;103032;-73
2021/07/08 01:53:03;;;;;;;27.07;17.57;;;;;;;21.38;59.25;99250.51;125615;1095;103000;-73
2021/07/08 01:55:31;;;;;;;28.33;16.90;;;;;;;21.38;59.54;99255.92;125663;1096;103050;-74
2021/07/08 01:58:01;;;;;;;25.63;16.10;;;;;;;21.36;59.36;99248.00;125668;1094;103000;-74
2021/07/08 02:00:30;;;;;;;27.13;15.80;;;;;;;21.33;59.24;99253.76;125688;1093;103034;-73
2021/07/08 02:02:59;;;;;;;27.07;16.60;;;;;;;21.32;59.58;99259.33;125618;1095;103111;-74
2021/07/08 02:05:27;;;;;;;26.57;16.53;;;;;;;21.30;59.29;99248.70;125661;1095;102980;-75
2021/07/08 02:07:56;;;;;;;25.23;16.00;;;;;;;21.27;59.71;99266.11;125688;1095;103009;-75
2021/07/08 02:10:24;;;;;;;24.50;15.57;;;;;;;21.24;59.77;99255.64;125681;1096;103022;-75
2021/07/08 02:12:52;;;;;;;23.13;14.83;;;;;;;21.22;59.48;99254.14;125675;1096;103114;-73
2021/07/08 02:15:22;;;;;;;27.27;15.27;;;;;;;21.21;59.85;99257.86;125623;1093;103202;-74
2021/07/08 02:17:51;;;;;;;27.67;14.87;;;;;;;21.17;59.42;99262.80;125601;1093;102994;-74
2021/07/08 02:20:20;;;;;;;26.37;15.23;;;;;;;21.16;60.01;99260.25;125584;1093;102939;-74
2021/07/08 02:22:49;;;;;;;27.73;15.77;;;;;;;21.14;60.07;99268.55;125697;1093;103364;-73
2021/07/08 02:25:19;;;;;;;23.80;14.47;;;;;;;21.10;60.14;99276.16;125695;1093;103019;-74
2021/07/08 02:27:48;;;;;;;28.77;15.63;;;;;;;21.08;60.25;99274.66;125655;1092;102939;-74
2021/07/08 02:30:22;;;;;;;30.07;16.80;;;;;;;21.06;60.24;99282.93;125707;1093;102906;-74
2021/07/08 02:32:58;;;;;;;27.47;16.40;;;;;;;21.07;60.35;99283.80;125687;1093;102995;-74
2021/07/08 02:35:27;;;;;;;29.53;16.30;;;;;;;21.04;60.49;99282.26;125643;1095;102997;-73
2021/07/08 02:37:57;;;;;;;29.93;17.43;;;;;;;21.03;60.55;99279.74;126330;1095;102911;-73
2021/07/08 02:40:29;;;;;;;27.20;16.80;;;;;;;21.03;60.55;99287.86;125604;1095;102916;-73
2021/07/08 02:42:59;;;;;;;27.03;16.33;;;;;;;21.00;60.56;99293.61;125695;1095;103158;-73
2021/07/08 02:45:30;;;;;;;26.00;15.90;;;;;;;20.94;60.92;99287.05;125697;1096;102933;-73
2021/07/08 02:48:01;;;;;;;28.00;16.77;;;;;;;20.88;60.78;99293.14;125708;1096;103017;-74
2021/07/08 02:50:31;;;;;;;29.10;17.60;;;;;;;20.88;60.84;99293.98;125644;1096;102913;-73
2021/07/08 02:53:00;;;;;;;26.47;16.40;;;;;;;20.87;60.95;99289.58;125670;1096;102994;-74
2021/07/08 02:55:28;;;;;;;26.77;17.27;;;;;;;20.88;60.92;99302.08;125701;1096;102916;-74
2021/07/08 02:57:59;;;;;;;26.27;16.63;;;;;;;20.87;61.09;99297.69;125656;1096;103571;-73
2021/07/08 03:00:29;;;;;;;30.37;16.93;;;;;;;20.87;61.13;99303.09;125680;1096;102970;-74
2021/07/08 03:02:59;;;;;;;29.03;18.30;;;;;;;20.87;60.91;99310.38;125673;1096;102938;-75
2021/07/08 03:05:27;;;;;;;28.23;17.33;;;;;;;20.85;61.47;99309.71;125610;1095;102925;-73
2021/07/08 03:07:57;;;;;;;28.23;17.63;;;;;;;20.81;61.38;99306.48;125628;1095;102939;-73
2021/07/08 03:10:28;;;;;;;26.67;16.33;;;;;;;20.80;61.32;99311.06;125694;1095;102998;-74
2021/07/08 03:12:58;;;;;;;25.93;17.07;;;;;;;20.79;61.58;99317.48;125673;1093;102935;-74
2021/07/08 03:15:27;;;;;;;30.13;17.40;;;;;;;;;;125687;1096;102935;-74
2021/07/08 03:17:57;;;;;;;27.17;17.23;;;;;;;20.76;61.65;99312.39;125631;1096;103160;-74
2021/07/08 03:20:30;;;;;;;26.20;16.50;;;;;;;20.75;61.79;99313.41;125602;1096;102896;-75
2021/07/08 03:22:59;;;;;;;28.80;17.20;;;;;;;20.76;61.77;99315.09;125641;1094;102984;-75
2021/07/08 03:25:29;;;;;;;26.83;16.83;;;;;;;20.74;61.86;99317.13;125645;1093;102992;-74
2021/07/08 03:28:00;;;;;;;32.47;17.90;;;;;;;20.74;62.18;99314.42;125707;1093;103416;-75
2021/07/08 03:30:30;;;;;;;25.83;17.30;;;;;;;20.75;62.06;99318.81;125597;1093;103116;-76
2021/07/08 03:33:01;;;;;;;31.23;17.63;;;;;;;20.76;62.08;99314.27;125623;1092;103422;-74
2021/07/08 03:35:33;;;;;;;28.78;18.23;;;;;;;20.76;62.06;99320.50;125622;1093;103048;-72
2021/07/08 03:38:01;;;;;;;29.77;17.20;;;;;;;20.77;62.19;99319.52;125662;1093;103013;-74
2021/07/08 03:40:32;;;;;;;27.17;16.53;;;;;;;20.80;62.54;99321.02;125665;1093;102986;-75
2021/07/08 03:43:01;;;;;;;28.60;16.63;;;;;;;20.84;62.36;99324.24;125601;1093;103086;-74
2021/07/08 03:45:30;;;;;;;28.83;17.90;;;;;;;20.84;62.45;99316.13;125630;1093;102914;-73
2021/07/08 03:47:59;;;;;;;28.23;17.63;;;;;;;20.84;62.53;99313.43;125666;1093;102932;-73
2021/07/08 03:50:27;;;;;;;28.97;18.03;;;;;;;20.84;62.61;99319.66;125699;1093;103342;-73
2021/07/08 03:52:58;;;;;;;27.80;17.70;;;;;;;20.87;62.69;99321.20;125647;1093;102935;-73
2021/07/08 03:55:27;;;;;;;27.33;18.17;;;;;;;20.89;62.71;99324.57;125641;1095;102927;-72
2021/07/08 03:57:56;;;;;;;25.80;18.23;;;;;;;20.89;62.68;99330.81;126128;1094;103028;-72
2021/07/08 04:00:37;;;;;;;26.20;17.27;;;;;;;20.91;62.78;99334.19;125715;1094;102995;-80
2021/07/08 04:03:13;;;;;;;27.13;17.50;;;;;;;20.93;62.99;99328.63;125627;1093;102916;-73
2021/07/08 04:05:43;;;;;;;27.50;17.80;;;;;;;20.95;62.88;99343.64;125640;1095;103042;-73
2021/07/08 04:08:13;;;;;;;27.83;17.73;;;;;;;20.98;63.08;99334.36;125685;1096;102946;-73
2021/07/08 04:10:44;;;;;;;28.63;18.03;;;;;;;21.01;62.98;99330.45;125660;1095;102938;-73
2021/07/08 04:13:18;;;;;;;24.97;17.20;;;;;;;21.03;63.28;99344.64;125688;1095;102908;-76
2021/07/08 04:15:48;;;;;;;27.03;17.73;;;;;;;21.05;63.26;99346.14;125695;1094;102913;-70
2021/07/08 04:18:18;;;;;;;29.10;18.37;;;;;;;21.09;63.26;99344.78;125636;1095;103091;-71
2021/07/08 04:20:48;;;;;;;28.07;19.17;;;;;;;21.15;63.07;99345.97;125657;1093;103057;-68
2021/07/08 04:23:19;;;;;;;32.87;18.63;;;;;;;21.18;63.41;99351.03;125649;1093;102910;-70
2021/07/08 04:25:47;;;;;;;32.63;18.67;;;;;;;21.22;63.58;99356.93;125615;1093;102991;-69
2021/07/08 04:28:16;;;;;;;31.57;18.80;;;;;;;21.26;63.39;99360.98;125697;1093;102906;-68
2021/07/08 04:30:46;;;;;;;27.43;17.33;;;;;;;21.29;63.71;99360.63;125653;1095;102987;-68
2021/07/08 04:33:18;;;;;;;32.10;18.88;;;;;;;21.34;63.82;99360.09;125628;1096;102996;-68
2021/07/08 04:35:47;;;;;;;26.90;18.60;;;;;;;21.37;63.75;99365.16;125640;1094;102935;-69
2021/07/08 04:38:17;;;;;;;28.63;17.30;;;;;;;21.41;63.89;99361.92;125880;1093;102997;-68
2021/07/08 04:40:45;;;;;;;28.00;19.47;;;;;;;21.46;63.80;99366.82;125660;1093;103067;-69
2021/07/08 04:43:14;;;;;;;26.90;17.60;;;;;;;21.50;63.92;99370.02;125611;1095;103031;-67
2021/07/08 04:45:43;;;;;;;28.07;18.37;;;;;;;21.55;64.11;99359.50;125606;1095;103070;-67
2021/07/08 04:48:13;;;;;;;28.03;18.77;;;;;;;21.59;64.06;99365.42;126097;1094;102991;-69
2021/07/08 04:50:43;;;;;;;30.73;19.57;;;;;;;21.61;64.02;99366.92;125661;1095;103023;-68
2021/07/08 04:53:18;;;;;;;29.57;18.37;;;;;;;21.65;64.04;99368.30;125728;1096;102905;-69
2021/07/08 04:55:46;;;;;;;26.00;17.75;;;;;;;21.69;64.22;99368.77;125657;1095;102914;-67
2021/07/08 04:58:14;;;;;;;30.87;18.73;;;;;;;21.74;64.29;99368.27;125634;1096;103064;-69
2021/07/08 05:00:43;;;;;;;30.60;19.47;;;;;;;21.78;64.40;99378.55;125651;1096;102995;-69
2021/07/08 05:03:12;;;;;;;29.13;19.00;;;;;;;21.84;64.42;99372.42;125628;1093;102991;-68
2021/07/08 05:05:40;;;;;;;30.80;18.53;;;;;;;21.91;64.34;99374.43;126187;1093;102924;-72
2021/07/08 05:08:08;;;;;;;32.40;20.50;;;;;;;21.95;64.19;99375.77;125649;1093;102905;-73
2021/07/08 05:10:37;;;;;;;27.27;18.00;;;;;;;22.03;64.64;99377.57;125621;1093;103131;-74
2021/07/08 05:13:08;;;;;;;27.57;18.30;;;;;;;22.10;64.35;99378.55;125604;1093;102987;-75
2021/07/08 05:15:37;;;;;;;26.53;18.20;;;;;;;22.15;64.79;99382.39;125733;1096;102939;-75
2021/07/08 05:18:06;;;;;;;26.47;17.27;;;;;;;22.22;64.49;99385.22;125691;1094;102913;-75
2021/07/08 05:20:34;;;;;;;28.00;16.77;;;;;;;22.26;64.78;99383.84;125656;1097;103131;-76
2021/07/08 05:23:06;;;;;;;25.17;17.30;;;;;;;22.33;64.79;99388.53;125637;1096;103060;-75
2021/07/08 05:25:34;;;;;;;36.73;17.20;;;;;;;22.39;64.35;99390.53;125694;1096;103422;-74
2021/07/08 05:28:03;;;;;;;26.17;16.40;;;;;;;22.42;64.15;99385.58;125640;1096;103020;-74
2021/07/08 05:30:32;;;;;;;24.80;16.90;;;;;;;22.45;65.10;99392.55;125661;1096;103035;-76
2021/07/08 05:33:00;;;;;;;27.80;16.87;;;;;;;22.50;64.51;99390.14;125672;1096;102964;-76
2021/07/08 05:35:29;;;;;;;28.67;16.93;;;;;;;22.54;65.09;99396.89;125687;1096;103008;-73
2021/07/08 05:37:58;;;;;;;30.53;17.00;;;;;;;22.58;64.75;99395.51;125740;1095;102913;-74
2021/07/08 05:40:27;;;;;;;30.73;17.17;;;;;;;22.63;64.89;99404.94;125742;1095;103018;-75
2021/07/08 05:42:55;;;;;;;24.73;15.70;;;;;;;22.70;64.79;99405.89;125707;1096;103061;-76
2021/07/08 05:45:24;;;;;;;26.63;16.40;;;;;;;22.76;65.27;99402.45;125719;1095;103032;-75
2021/07/08 05:47:52;;;;;;;26.17;16.70;;;;;;;22.88;65.01;99400.14;125660;1096;103153;-76
2021/07/08 05:50:22;;;;;;;27.43;17.23;;;;;;;23.01;64.75;99402.25;125728;1096;102924;-76
2021/07/08 05:52:51;;;;;;;32.20;19.70;;;;;;;23.12;65.06;99407.20;125680;1096;103031;-76
2021/07/08 05:55:21;;;;;;;24.90;16.55;;;;;;;23.22;65.13;99406.09;125660;1095;102969;-75
2021/07/08 05:57:54;;;;;;;27.83;16.50;;;;;;;23.31;65.30;99408.56;125700;1095;102908;-76
2021/07/08 06:00:23;;;;;;;25.87;16.17;;;;;;;23.40;65.12;99414.76;125688;1096;103636;-76
2021/07/08 06:02:51;;;;;;;28.47;15.57;;;;;;;23.46;65.20;99419.41;125697;1096;102916;-76
2021/07/08 06:05:21;;;;;;;27.63;17.23;;;;;;;23.57;65.38;99414.55;125705;1096;103032;-76
2021/07/08 06:07:49;;;;;;;22.37;16.00;;;;;;;23.71;65.47;99421.85;125709;1096;103083;-75
2021/07/08 06:10:18;;;;;;;24.10;16.03;;;;;;;23.85;65.49;99422.00;125711;1095;102934;-75
2021/07/08 06:12:48;;;;;;;28.00;16.17;;;;;;;23.95;65.32;99425.27;125657;1095;103035;-76
2021/07/08 06:15:18;;;;;;;25.37;17.17;;;;;;;24.04;64.84;99424.17;125724;1096;102913;-75
2021/07/08 06:17:46;;;;;;;28.13;17.47;;;;;;;24.17;65.28;99426.19;125701;1096;102940;-75
2021/07/08 06:20:15;;;;;;;26.63;16.43;;;;;;;24.26;65.37;99426.08;125668;1096;102974;-75
2021/07/08 06:22:44;;;;;;;24.10;17.00;;;;;;;24.37;65.29;99431.02;125691;1095;102916;-76
2021/07/08 06:25:14;;;;;;;25.77;16.27;;;;;;;24.49;65.43;99434.05;125649;1096;103007;-75
2021/07/08 06:27:42;;;;;;;27.10;17.83;;;;;;;24.68;64.90;99444.27;125659;1096;103373;-75
2021/07/08 06:30:12;;;;;;;30.93;15.97;;;;;;;24.87;64.54;99435.67;125639;1096;103410;-73
2021/07/08 06:32:40;;;;;;;26.85;14.75;;;;;;;25.02;64.44;99433.72;125707;1096;103440;-75
2021/07/08 06:35:17;;;;;;;27.20;16.55;;;;;;;25.10;64.74;99446.33;125610;1096;103023;-76
2021/07/08 06:37:47;;;;;;;22.33;14.23;;;;;;;25.20;65.19;99446.83;125634;1096;103063;-75
2021/07/08 06:40:18;;;;;;;24.00;13.90;;;;;;;25.33;65.20;99442.53;125717;1095;103511;-76
2021/07/08 06:42:47;;;;;;;28.93;14.87;;;;;;;25.47;64.93;99449.79;125695;1096;103019;-77
2021/07/08 06:45:18;;;;;;;25.10;13.40;;;;;;;25.58;65.14;99445.66;125720;1096;103064;-76
2021/07/08 06:48:01;;;;;;;24.10;13.27;;;;;;;25.69;64.91;99436.89;125667;1095;102956;-76
2021/07/08 06:50:34;;;;;;;22.23;12.60;;;;;;;25.83;64.57;99439.69;125668;1096;103009;-75
2021/07/08 06:53:04;;;;;;;24.63;12.30;;;;;;;25.99;64.90;99442.08;125664;1096;102978;-76
2021/07/08 06:55:36;;;;;;;22.40;12.73;;;;;;;26.15;64.24;99443.64;125665;1095;102997;-76
2021/07/08 06:58:06;;;;;;;25.70;12.37;;;;;;;26.29;64.43;99441.78;125707;1096;102917;-76
2021/07/08 07:00:37;;;;;;;25.83;12.67;;;;;;;26.48;64.61;99439.32;125720;1096;103055;-75
2021/07/08 07:03:06;;;;;;;23.35;11.83;;;;;;;26.74;64.33;99438.49;125672;1096;102924;-76
2021/07/08 07:05:36;;;;;;;19.60;11.40;;;;;;;27.25;64.06;99435.38;125714;1096;103084;-75
2021/07/08 07:08:04;;;;;;;24.50;10.43;;;;;;;28.29;62.83;99443.69;125705;1097;103007;-76
2021/07/08 07:10:33;;;;;;;21.77;11.00;;;;;;;29.35;63.10;99437.63;125713;1096;102913;-76
2021/07/08 07:13:04;;;;;;;23.87;11.40;;;;;;;30.35;61.98;99439.45;125684;1096;102984;-75
2021/07/08 07:15:33;;;;;;;21.00;10.87;;;;;;;31.38;62.15;99432.98;125618;1095;103104;-75
2021/07/08 07:18:04;;;;;;;19.67;9.67;;;;;;;32.39;62.16;99436.46;125654;1096;102734;-76
2021/07/08 07:20:32;;;;;;;17.97;9.83;;;;;;;33.38;62.06;99429.59;125548;1096;103002;-76
2021/07/08 07:23:08;;;;;;;17.17;8.87;;;;;;;34.49;61.42;99431.48;125698;1095;103012;-75
2021/07/08 07:25:40;;;;;;;21.00;10.13;;;;;;;35.44;61.16;99426.41;125680;1095;103009;-75
2021/07/08 07:28:09;;;;;;;;;;;;;;;36.29;59.48;99430.10;125671;1095;102990;-75
2021/07/08 07:30:40;;;;;;;17.43;8.80;;;;;;;37.21;60.87;99432.09;125692;1094;103348;-76
2021/07/08 07:33:09;;;;;;;17.50;8.57;;;;;;;38.12;60.42;99431.25;125667;1096;103004;-76
2021/07/08 07:35:38;;;;;;;20.60;9.30;;;;;;;38.87;60.20;99428.54;125700;1097;103380;-76
2021/07/08 07:38:11;;;;;;;20.37;8.20;;;;;;;39.64;59.38;99426.08;125693;1096;102937;-77
2021/07/08 07:40:42;;;;;;;18.87;8.30;;;;;;;40.29;58.78;99433.89;125660;1096;102937;-76
2021/07/08 07:43:11;;;;;;;20.33;8.83;;;;;;;40.90;58.33;99434.06;125674;1097;103070;-76
2021/07/08 07:45:41;;;;;;;14.37;7.93;;;;;;;41.25;57.05;99430.11;125667;1096;103011;-77
2021/07/08 07:48:11;;;;;;;19.43;8.43;;;;;;;41.47;56.37;99424.63;125707;1097;103131;-76
2021/07/08 07:50:39;;;;;;;20.30;8.63;;;;;;;41.78;55.86;99424.02;125581;1096;102977;-77
2021/07/08 07:53:08;;;;;;;15.17;8.30;;;;;;;42.24;55.25;99426.94;125645;1096;103057;-76
2021/07/08 07:55:36;;;;;;;17.40;8.60;;;;;;;42.78;54.26;99423.43;125664;1096;103095;-77
2021/07/08 07:58:05;;;;;;;16.97;8.70;;;;;;;43.06;53.40;99418.53;125627;1096;103070;-77
2021/07/08 08:00:34;;;;;;;20.40;8.97;;;;;;;43.25;52.83;99411.88;125690;1094;103025;-76
2021/07/08 08:03:04;;;;;;;18.50;8.70;;;;;;;43.47;52.34;99416.56;125682;1093;103005;-76
2021/07/08 08:05:36;;;;;;;17.10;8.43;;;;;;;43.80;51.16;99412.56;125688;1096;103212;-78
2021/07/08 08:10:55;;;;;;;16.50;8.50;;;;;;;43.81;49.45;99412.25;125661;1095;102999;-77
2021/07/08 08:13:24;;;;;;;;;;;;;;;43.83;48.01;99415.52;125719;1096;102991;-76
2021/07/08 08:15:54;;;;;;;18.57;8.47;;;;;;;43.54;48.21;99418.91;125696;1095;102930;-76
2021/07/08 08:18:25;;;;;;;22.00;9.18;;;;;;;43.68;47.77;99419.63;125675;1097;102907;-77
2021/07/08 08:20:55;;;;;;;17.00;8.40;;;;;;;43.80;47.01;99429.38;125679;1093;103123;-78
2021/07/08 08:23:23;;;;;;;17.00;7.97;;;;;;;43.71;46.47;99418.97;125636;1093;102913;-77
2021/07/08 08:25:52;;;;;;;18.05;7.95;;;;;;;44.09;45.90;99413.94;125719;1093;102909;-77
2021/07/08 08:28:20;;;;;;;15.70;7.83;;;;;;;44.52;45.76;99415.13;125638;1093;102906;-77
2021/07/08 08:30:48;;;;;;;17.07;8.00;;;;;;;44.76;44.82;99414.59;125641;1092;102996;-79
2021/07/08 08:33:17;;;;;;;12.13;7.53;;;;;;;44.93;44.54;99415.70;125668;1093;103479;-77
2021/07/08 08:35:46;;;;;;;16.50;7.40;;;;;;;44.99;43.35;99419.98;125425;1093;103080;-76
2021/07/08 08:38:14;;;;;;;17.20;7.23;;;;;;;44.90;43.40;99418.02;125644;1093;102910;-76
2021/07/08 08:40:43;;;;;;;15.77;7.77;;;;;;;44.84;43.12;99426.94;125330;1093;103453;-76
2021/07/08 08:43:11;;;;;;;14.00;7.30;;;;;;;45.03;42.62;99432.19;125485;1093;102911;-75
2021/07/08 08:45:39;;;;;;;14.30;7.20;;;;;;;45.18;41.61;99425.20;125579;1093;103156;-76
2021/07/08 08:48:11;;;;;;;14.43;6.63;;;;;;;45.03;39.30;99421.80;125580;1096;102995;-78
2021/07/08 08:50:50;;;;;;;15.97;7.60;;;;;;;43.23;39.32;99419.73;125590;1093;102919;-78
2021/07/08 08:53:19;;;;;;;15.83;7.50;;;;;;;43.06;39.72;99417.69;125626;1093;103059;-76
2021/07/08 08:56:05;;;;;;;15.13;7.97;;;;;;;43.17;39.44;99418.25;125587;1096;103001;-76
2021/07/08 08:58:33;;;;;;;15.47;7.17;;;;;;;43.21;39.30;99413.63;125650;1093;103061;-76
2021/07/08 09:01:05;;;;;;;16.50;8.10;;;;;;;43.04;38.14;99409.63;125629;1093;103478;-78
2021/07/08 09:03:34;;;;;;;19.65;7.70;;;;;;;42.64;38.20;99406.73;125638;1093;103026;-76
2021/07/08 09:06:08;;;;;;;16.77;7.67;;;;;;;42.72;38.48;99405.97;125562;1093;103006;-76
2021/07/08 09:08:39;;;;;;;14.90;7.87;;;;;;;42.84;38.01;99411.81;125471;1094;102908;-77
2021/07/08 09:11:12;;;;;;;17.78;7.38;;;;;;;42.65;37.60;99409.20;125548;1093;101820;-77
2021/07/08 09:13:45;;;;;;;16.40;7.40;;;;;;;41.85;36.62;99408.80;125514;1093;102935;-78
2021/07/08 09:16:19;;;;;;;17.10;7.50;;;;;;;41.28;37.15;99405.20;125577;1093;103624;-78
2021/07/08 09:19:02;;;;;;;13.50;7.00;;;;;;;41.31;37.26;99404.58;125683;1091;103010;-78
2021/07/08 09:21:34;;;;;;;18.40;8.63;;;;;;;41.59;37.17;99403.78;125638;1093;103048;-77
2021/07/08 09:24:02;;;;;;;14.13;7.90;;;;;;;41.79;36.58;99399.72;125654;1093;102993;-78
2021/07/08 09:26:32;;;;;;;18.27;7.80;;;;;;;41.93;36.94;99403.33;125666;1093;103043;-78
2021/07/08 09:29:22;;;;;;;15.97;8.10;;;;;;;42.14;36.65;99414.05;125686;1094;103170;-78
2021/07/08 09:31:58;;;;;;;15.40;7.30;;;;;;;42.20;36.53;99400.77;125699;1093;102917;-77
2021/07/08 09:34:33;;;;;;;13.37;7.43;;;;;;;42.00;36.09;99396.48;125641;1093;103009;-77
2021/07/08 09:37:05;;;;;;;10.30;6.20;;;;;;;41.39;34.95;99397.44;125656;1093;102919;-77
2021/07/08 09:39:38;;;;;;;;;;;;;;;40.45;35.39;99391.86;125626;1093;103454;-77
2021/07/08 09:42:10;;;;;;;11.47;6.83;;;;;;;40.52;36.14;99395.09;125653;1093;102996;-78
2021/07/08 09:44:41;;;;;;;12.13;7.07;;;;;;;40.54;35.38;99389.20;125711;1092;102926;-78
2021/07/08 09:47:27;;;;;;;12.27;7.53;;;;;;;40.45;35.83;99384.31;125618;1093;103004;-76
2021/07/08 09:49:58;;;;;;;13.15;8.00;;;;;;;39.93;34.90;99389.82;125660;1096;103063;-77
2021/07/08 09:52:26;;;;;;;15.60;7.37;;;;;;;39.69;35.79;99389.84;125635;1092;102916;-77
2021/07/08 09:57:49;;;;;;;14.80;7.83;;;;;;;39.34;34.79;99386.38;125698;1093;102909;-78
2021/07/08 10:00:27;;;;;;;16.30;7.85;;;;;;;38.08;34.72;99396.03;125660;1092;103003;-78
2021/07/08 10:02:56;;;;;;;12.07;6.50;;;;;;;37.60;34.73;99382.63;125698;1093;102984;-77
2021/07/08 10:05:27;;;;;;;16.87;8.37;;;;;;;36.61;34.47;99385.58;125700;1093;103066;-77
2021/07/08 10:07:55;;;;;;;19.70;8.70;;;;;;;36.30;35.52;99376.39;125740;1093;103116;-77
2021/07/08 10:10:24;;;;;;;15.53;8.67;;;;;;;36.29;35.93;99381.08;125698;1093;103061;-77
2021/07/08 10:12:57;;;;;;;15.23;8.50;;;;;;;36.29;35.85;99388.56;125648;1096;102911;-77
2021/07/08 10:15:35;;;;;;;14.35;8.30;;;;;;;36.18;36.03;99377.47;125687;1094;102908;-77
2021/07/08 10:18:07;;;;;;;14.90;7.75;;;;;;;36.17;36.43;99374.98;125714;1092;103364;-78
2021/07/08 10:20:37;;;;;;;;;;;;;;;36.06;36.06;99383.27;125735;1093;102981;-77
2021/07/08 10:23:07;;;;;;;13.27;5.83;;;;;;;35.48;35.80;99375.03;125668;1093;103036;-77
2021/07/08 10:25:36;;;;;;;11.80;6.10;;;;;;;34.87;35.51;99377.11;125629;1093;102933;-77
2021/07/08 10:28:07;;;;;;;11.27;6.20;;;;;;;34.25;34.91;99393.11;125635;1095;103178;-77
2021/07/08 10:30:38;;;;;;;11.67;6.50;;;;;;;33.57;35.41;99378.82;125642;1093;102942;-77
2021/07/08 10:33:20;;;;;;;11.90;6.63;;;;;;;33.52;35.95;99382.33;125687;1093;103026;-76
2021/07/08 10:35:53;;;;;;;11.03;6.30;;;;;;;33.67;36.31;99378.92;125705;1093;102913;-77
2021/07/08 10:38:28;;;;;;;11.17;7.07;;;;;;;33.83;36.30;99369.75;125620;1093;103023;-78
2021/07/08 10:41:19;;;;;;;14.00;6.70;;;;;;;33.97;36.71;99374.91;125696;1092;102913;-78
2021/07/08 10:43:50;;;;;;;12.93;7.17;;;;;;;33.72;36.54;99378.17;125655;1096;102916;-77
2021/07/08 10:46:38;;;;;;;13.97;7.73;;;;;;;33.55;36.86;99374.39;125658;1093;102904;-77
2021/07/08 10:49:13;;;;;;;15.55;7.00;;;;;;;33.63;37.14;99369.50;125669;1093;102909;-76
2021/07/08 10:51:44;;;;;;;14.17;7.10;;;;;;;33.57;36.96;99365.03;125653;1093;103029;-77
2021/07/08 10:54:28;;;;;;;16.33;7.50;;;;;;;33.52;37.20;99368.55;125742;1093;102913;-76
2021/07/08 10:57:00;;;;;;;14.35;6.30;;;;;;;33.43;37.21;99359.05;125680;1093;103425;-76
2021/07/08 10:59:45;;;;;;;9.63;5.97;;;;;;;33.52;37.24;99354.75;125709;1093;102991;-75
2021/07/08 11:02:50;;;;;;;10.23;5.70;;;;;;;33.59;37.31;99363.67;125693;1093;103029;-77
2021/07/08 11:05:55;;;;;;;10.43;6.13;;;;;;;33.67;37.48;99359.62;125690;1093;103007;-77
2021/07/08 11:08:48;;;;;;;9.93;5.47;;;;;;;33.73;37.78;99353.08;125696;1093;102985;-76
2021/07/08 11:11:21;;;;;;;10.50;5.20;;;;;;;33.80;38.10;99353.72;125616;1093;102913;-73
2021/07/08 11:13:54;;;;;;;10.53;5.47;;;;;;;33.87;37.75;99352.69;125647;1093;102915;-76
2021/07/08 11:16:58;;;;;;;12.13;5.97;;;;;;;33.90;37.68;99347.47;125668;1093;102945;-78
2021/07/08 11:19:38;;;;;;;8.63;5.43;;;;;;;33.75;36.25;99356.41;125656;1093;103172;-74
2021/07/08 11:22:34;;;;;;;7.83;5.37;;;;;;;33.09;36.17;99351.70;125659;1092;103015;-75
2021/07/08 11:25:06;;;;;;;7.80;4.90;;;;;;;32.64;36.44;99348.80;125639;1093;103425;-74
2021/07/08 11:27:38;;;;;;;8.73;4.97;;;;;;;32.38;36.40;99338.46;126024;1093;103387;-82
2021/07/08 11:30:15;;;;;;;9.73;5.53;;;;;;;32.03;36.87;99341.11;125860;1093;102161;-76